createdAt,value
2022-08-22T00:02:43.622Z,74.32
2022-08-22T00:02:44.020Z,75.70
2022-08-22T00:02:47.781Z,65.84
2022-08-22T00:02:48.150Z,67.08
2022-08-22T00:03:04.492Z,66.98
2022-08-22T00:03:07.585Z,70.09
2022-08-22T00:03:17.558Z,82.87
2022-08-22T00:06:02.244Z,83.51
2022-08-22T00:09:09.924Z,83.72
2022-08-22T00:12:17.595Z,83.82
2022-08-22T00:15:42.979Z,83.82
2022-08-22T00:18:30.184Z,84.02
2022-08-22T00:21:37.947Z,84.87
2022-08-22T00:24:45.643Z,84.77
2022-08-22T00:27:53.330Z,85.31
2022-08-22T00:31:01.534Z,85.52
2022-08-22T00:34:08.949Z,86.19
2022-08-22T00:37:16.822Z,85.48
2022-08-22T00:40:26.093Z,85.27
2022-08-22T00:43:25.783Z,84.70
2022-08-22T00:46:33.491Z,85.31
2022-08-22T00:49:40.896Z,85.25
2022-08-22T00:52:49.085Z,84.64
2022-08-22T00:55:56.387Z,85.76
2022-08-22T00:59:23.489Z,85.86
2022-08-22T01:02:09.886Z,84.95
2022-08-22T01:05:17.150Z,85.80
2022-08-22T01:08:25.498Z,85.70
2022-08-22T01:11:33.618Z,86.55
2022-08-22T01:14:40.953Z,87.26
2022-08-22T01:17:48.759Z,86.86
2022-08-22T01:20:56.374Z,87.46
2022-08-22T01:24:04.194Z,87.46
2022-08-22T01:27:12.366Z,87.67
2022-08-22T01:30:19.967Z,87.37
2022-08-22T01:33:30.945Z,87.26
2022-08-22T01:36:38.540Z,86.65
2022-08-22T01:39:46.608Z,87.67
2022-08-22T01:42:54.299Z,88.52
2022-08-22T01:46:02.010Z,88.52
2022-08-22T01:49:09.732Z,89.17
2022-08-22T01:52:17.861Z,88.93
2022-08-22T01:55:27.386Z,88.42
2022-08-22T01:58:35.041Z,88.48
2022-08-22T02:01:42.275Z,87.46
2022-08-22T02:04:50.303Z,86.76
2022-08-22T02:07:58.049Z,87.10
2022-08-22T02:11:05.756Z,87.81
2022-08-22T02:14:14.088Z,88.62
2022-08-22T02:17:21.468Z,88.56
2022-08-22T02:20:29.429Z,89.37
2022-08-22T02:23:37.601Z,89.58
2022-08-22T02:26:44.960Z,89.58
2022-08-22T02:29:53.080Z,89.13
2022-08-22T02:33:00.683Z,88.56
2022-08-22T02:36:08.543Z,88.56
2022-08-22T02:39:16.641Z,88.56
2022-08-22T02:42:24.095Z,88.91
2022-08-22T02:45:31.916Z,90.03
2022-08-22T02:48:39.607Z,90.64
2022-08-22T02:51:47.587Z,90.68
2022-08-22T02:54:55.303Z,91.60
2022-08-22T02:58:03.309Z,91.69
2022-08-22T03:01:11.082Z,92.00
2022-08-22T03:04:18.410Z,92.35
2022-08-22T03:07:26.402Z,92.55
2022-08-22T03:10:34.032Z,92.55
2022-08-22T03:13:41.672Z,92.35
2022-08-22T03:16:49.665Z,92.76
2022-08-22T03:19:57.255Z,92.86
2022-08-22T03:23:04.887Z,92.45
2022-08-22T03:26:12.996Z,92.55
2022-08-22T03:29:20.647Z,92.45
2022-08-22T03:32:28.386Z,92.49
2022-08-22T03:35:36.077Z,92.80
2022-08-22T03:38:43.830Z,93.31
2022-08-22T03:41:51.349Z,92.86
2022-08-22T03:44:59.401Z,92.14
2022-08-22T03:48:07.182Z,91.64
2022-08-22T03:51:15.013Z,92.14
2022-08-22T03:54:23.203Z,92.49
2022-08-22T03:57:30.514Z,92.90
2022-08-22T04:00:38.375Z,92.65
2022-08-22T04:03:46.457Z,92.14
2022-08-22T04:06:56.399Z,92.04
2022-08-22T04:10:04.487Z,91.74
2022-08-22T04:13:12.334Z,91.23
2022-08-22T04:16:20.088Z,91.68
2022-08-22T04:19:28.319Z,91.48
2022-08-22T04:22:36.220Z,91.88
2022-08-22T04:25:44.071Z,91.84
2022-08-22T04:28:51.971Z,90.62
2022-08-22T04:31:59.912Z,90.72
2022-08-22T04:35:08.103Z,91.23
2022-08-22T04:38:16.625Z,91.78
2022-08-22T04:41:24.206Z,92.29
2022-08-22T04:44:31.964Z,92.70
2022-08-22T04:47:39.967Z,92.80
2022-08-22T04:50:47.727Z,92.80
2022-08-22T04:53:55.428Z,92.60
2022-08-22T04:57:03.618Z,92.86
2022-08-22T05:00:11.389Z,92.96
2022-08-22T05:03:19.229Z,92.76
2022-08-22T05:06:27.181Z,92.61
2022-08-22T05:09:34.519Z,92.21
2022-08-22T05:12:42.622Z,91.90
2022-08-22T05:15:50.334Z,91.65
2022-08-22T05:18:57.794Z,91.55
2022-08-22T05:22:05.835Z,91.45
2022-08-22T05:25:13.144Z,90.74
2022-08-22T05:28:21.174Z,90.64
2022-08-22T05:31:29.167Z,90.19
2022-08-22T05:34:36.458Z,89.23
2022-08-22T05:37:44.329Z,89.09
2022-08-22T05:40:52.020Z,88.44
2022-08-22T05:43:59.837Z,87.83
2022-08-22T05:47:08.191Z,87.59
2022-08-22T05:50:16.082Z,86.33
2022-08-22T05:53:23.805Z,86.22
2022-08-22T05:56:31.444Z,85.78
2022-08-22T05:59:39.515Z,85.68
2022-08-22T06:02:47.196Z,85.48
2022-08-22T06:05:54.656Z,85.13
2022-08-22T06:09:02.675Z,85.33
2022-08-22T06:12:13.749Z,83.68
2022-08-22T06:15:15.220Z,84.14
2022-08-22T06:18:24.710Z,83.74
2022-08-22T06:21:38.639Z,82.69
2022-08-22T06:24:35.832Z,81.88
2022-08-22T06:27:43.122Z,81.68
2022-08-22T06:30:51.353Z,81.64
2022-08-22T06:33:59.505Z,82.45
2022-08-22T06:37:06.805Z,81.20
2022-08-22T06:40:15.055Z,80.39
2022-08-22T06:43:22.546Z,79.94
2022-08-22T06:46:30.828Z,79.04
2022-08-22T06:49:39.018Z,78.80
2022-08-22T06:52:46.717Z,78.50
2022-08-22T06:55:54.400Z,78.70
2022-08-22T06:59:02.351Z,78.06
2022-08-22T07:02:09.701Z,77.15
2022-08-22T07:05:17.550Z,77.04
2022-08-22T07:08:25.404Z,77.82
2022-08-22T07:11:33.663Z,77.62
2022-08-22T07:14:41.476Z,78.08
2022-08-22T07:17:49.219Z,76.37
2022-08-22T07:20:57.349Z,76.67
2022-08-22T07:24:05.229Z,76.64
2022-08-22T07:27:13.550Z,76.74
2022-08-22T07:30:27.660Z,78.01
2022-08-22T07:33:27.017Z,74.25
2022-08-22T07:36:35.284Z,75.86
2022-08-22T07:39:42.992Z,75.42
2022-08-22T07:42:51.395Z,74.08
2022-08-22T07:45:59.325Z,72.27
2022-08-22T07:49:09.654Z,73.74
2022-08-22T07:52:07.389Z,72.33
2022-08-22T07:55:15.549Z,74.21
2022-08-22T07:58:22.851Z,72.27
2022-08-22T08:01:31.179Z,74.24
2022-08-22T08:04:40.565Z,71.93
2022-08-22T08:07:48.514Z,70.32
2022-08-22T08:10:56.675Z,71.00
2022-08-22T08:14:04.426Z,68.59
2022-08-22T08:17:12.167Z,70.96
2022-08-22T08:20:20.048Z,67.55
2022-08-22T08:23:28.000Z,69.32
2022-08-22T08:26:35.847Z,71.33
2022-08-22T08:29:43.540Z,70.29
2022-08-22T08:32:51.444Z,67.36
2022-08-22T08:36:03.065Z,70.43
2022-08-22T08:39:00.056Z,67.43
2022-08-22T08:42:07.708Z,67.99
2022-08-22T08:45:15.306Z,65.29
2022-08-22T08:48:23.546Z,64.86
2022-08-22T08:51:30.985Z,66.33
2022-08-22T08:54:39.009Z,66.43
2022-08-22T08:57:49.421Z,63.20
2022-08-22T09:00:57.028Z,61.98
2022-08-22T09:04:07.372Z,61.08
2022-08-22T09:07:11.815Z,60.58
2022-08-22T09:10:19.595Z,61.05
2022-08-22T09:13:27.746Z,60.95
2022-08-22T09:16:31.640Z,59.42
2022-08-22T09:19:39.328Z,61.11
2022-08-22T09:22:50.667Z,59.79
2022-08-22T09:25:50.362Z,57.80
2022-08-22T09:28:57.962Z,55.28
2022-08-22T09:32:05.680Z,55.58
2022-08-22T09:35:10.030Z,54.36
2022-08-22T09:38:17.775Z,51.45
2022-08-22T09:41:27.475Z,53.81
2022-08-22T09:44:39.751Z,50.03
2022-08-22T09:47:47.349Z,49.61
2022-08-22T09:51:04.652Z,50.90
2022-08-22T09:54:00.124Z,52.96
2022-08-22T09:57:08.282Z,49.96
2022-08-22T10:00:16.334Z,48.77
2022-08-22T10:03:23.632Z,50.85
2022-08-22T10:06:31.735Z,48.47
2022-08-22T10:09:40.367Z,51.25
2022-08-22T10:12:48.167Z,48.94
2022-08-22T10:15:58.076Z,52.02
2022-08-22T10:19:06.440Z,49.61
2022-08-22T10:22:14.173Z,48.13
2022-08-22T10:25:22.126Z,46.64
2022-08-22T10:28:31.204Z,50.21
2022-08-22T10:31:58.502Z,48.02
2022-08-22T10:34:44.637Z,49.07
2022-08-22T10:37:53.128Z,50.04
2022-08-22T10:41:00.630Z,46.64
2022-08-22T10:44:08.260Z,46.07
2022-08-22T10:47:19.143Z,46.57
2022-08-22T10:50:29.014Z,43.40
2022-08-22T10:53:29.686Z,42.90
2022-08-22T10:56:37.622Z,44.81
2022-08-22T10:59:37.285Z,44.60
2022-08-22T11:02:47.502Z,43.62
2022-08-22T11:05:54.885Z,43.49
2022-08-22T11:09:02.831Z,45.68
2022-08-22T11:12:10.641Z,44.27
2022-08-22T11:15:28.483Z,41.79
2022-08-22T11:18:23.525Z,44.74
2022-08-22T11:21:31.316Z,44.10
2022-08-22T11:24:55.785Z,39.93
2022-08-22T11:27:44.446Z,38.84
2022-08-22T11:30:52.278Z,37.56
2022-08-22T11:34:00.084Z,40.05
2022-08-22T11:37:11.084Z,41.49
2022-08-22T11:40:19.159Z,41.69
2022-08-22T11:43:27.886Z,38.51
2022-08-22T11:46:29.606Z,41.38
2022-08-22T11:49:37.566Z,40.39
2022-08-22T11:52:51.737Z,38.45
2022-08-22T11:55:49.560Z,39.43
2022-08-22T11:58:57.350Z,39.52
2022-08-22T12:02:04.999Z,39.22
2022-08-22T12:05:06.173Z,37.84
2022-08-22T12:08:14.035Z,39.72
2022-08-22T12:11:21.947Z,38.73
2022-08-22T12:14:30.054Z,37.84
2022-08-22T12:17:55.485Z,37.54
2022-08-22T12:20:45.392Z,38.23
2022-08-22T12:23:53.322Z,37.13
2022-08-22T12:27:00.673Z,36.93
2022-08-22T12:30:12.882Z,37.74
2022-08-22T12:33:10.446Z,37.87
2022-08-22T12:36:18.079Z,39.56
2022-08-22T12:39:15.769Z,39.85
2022-08-22T12:42:23.549Z,40.15
2022-08-22T12:45:32.292Z,39.83
2022-08-22T12:48:40.275Z,36.83
2022-08-22T12:51:48.584Z,36.71
2022-08-22T12:54:49.697Z,37.66
2022-08-22T12:57:57.346Z,35.77
2022-08-22T13:01:05.142Z,37.24
2022-08-22T13:04:19.327Z,34.46
2022-08-22T13:07:19.504Z,33.69
2022-08-22T13:10:19.711Z,35.27
2022-08-22T13:13:31.742Z,36.23
2022-08-22T13:16:32.524Z,35.21
2022-08-22T13:19:40.486Z,34.59
2022-08-22T13:22:48.956Z,33.02
2022-08-22T13:25:51.450Z,33.70
2022-08-22T13:29:15.523Z,33.43
2022-08-22T13:32:04.730Z,33.80
2022-08-22T13:35:12.144Z,34.70
2022-08-22T13:38:25.629Z,34.70
2022-08-22T13:41:23.686Z,33.72
2022-08-22T13:44:31.068Z,34.11
2022-08-22T13:47:39.711Z,34.08
2022-08-22T13:50:53.638Z,31.82
2022-08-22T13:54:01.899Z,32.43
2022-08-22T13:56:56.014Z,33.72
2022-08-22T14:00:06.486Z,33.62
2022-08-22T14:03:14.618Z,33.84
2022-08-22T14:06:32.606Z,33.26
2022-08-22T14:09:32.036Z,34.10
2022-08-22T14:12:29.231Z,33.33
2022-08-22T14:15:33.926Z,33.98
2022-08-22T14:18:35.713Z,34.46
2022-08-22T14:21:43.124Z,33.77
2022-08-22T14:24:55.523Z,33.67
2022-08-22T14:27:52.457Z,33.79
2022-08-22T14:31:01.133Z,35.46
2022-08-22T14:34:10.059Z,33.94
2022-08-22T14:37:17.688Z,32.82
2022-08-22T14:40:26.125Z,32.20
2022-08-22T14:43:34.904Z,31.35
2022-08-22T14:46:37.465Z,32.15
2022-08-22T14:49:47.202Z,31.76
2022-08-22T14:52:54.745Z,32.28
2022-08-22T14:56:02.538Z,31.51
2022-08-22T14:59:11.040Z,32.39
2022-08-22T15:02:11.641Z,33.00
2022-08-22T15:05:19.333Z,33.59
2022-08-22T15:08:27.477Z,33.36
2022-08-22T15:11:35.464Z,32.54
2022-08-22T15:14:43.606Z,32.43
2022-08-22T15:17:52.331Z,33.13
2022-08-22T15:21:00.270Z,32.05
2022-08-22T15:24:07.883Z,32.74
2022-08-22T15:27:16.552Z,31.36
2022-08-22T15:30:25.254Z,31.48
2022-08-22T15:33:33.877Z,32.45
2022-08-22T15:36:42.518Z,32.24
2022-08-22T15:39:50.609Z,31.88
2022-08-22T15:42:59.432Z,33.67
2022-08-22T15:46:07.449Z,34.87
2022-08-22T15:49:18.071Z,34.05
2022-08-22T15:52:26.048Z,32.86
2022-08-22T15:55:34.459Z,33.77
2022-08-22T15:58:48.809Z,35.54
2022-08-22T16:01:49.700Z,34.44
2022-08-22T16:04:47.356Z,33.56
2022-08-22T16:07:54.750Z,34.54
2022-08-22T16:11:02.591Z,34.51
2022-08-22T16:14:10.743Z,33.62
2022-08-22T16:17:18.054Z,33.72
2022-08-22T16:20:26.175Z,34.33
2022-08-22T16:23:33.747Z,33.95
2022-08-22T16:26:41.118Z,34.54
2022-08-22T16:29:48.930Z,33.56
2022-08-22T16:32:56.671Z,35.13
2022-08-22T16:36:04.464Z,35.13
2022-08-22T16:39:12.314Z,35.13
2022-08-22T16:42:20.225Z,34.36
2022-08-22T16:45:28.226Z,35.27
2022-08-22T16:48:36.195Z,36.15
2022-08-22T16:51:44.205Z,36.17
2022-08-22T16:54:51.522Z,36.99
2022-08-22T16:58:06.442Z,37.01
2022-08-22T17:01:03.403Z,36.91
2022-08-22T17:04:10.671Z,37.72
2022-08-22T17:07:18.983Z,37.03
2022-08-22T17:10:26.817Z,36.93
2022-08-22T17:13:34.163Z,37.23
2022-08-22T17:16:42.161Z,36.95
2022-08-22T17:19:49.481Z,37.15
2022-08-22T17:22:58.122Z,38.13
2022-08-22T17:26:06.135Z,37.16
2022-08-22T17:29:13.485Z,37.76
2022-08-22T17:32:21.674Z,38.07
2022-08-22T17:35:29.409Z,39.28
2022-08-22T17:38:36.871Z,40.56
2022-08-22T17:41:44.822Z,41.08
2022-08-22T17:44:53.334Z,41.99
2022-08-22T17:48:00.990Z,42.09
2022-08-22T17:51:09.135Z,42.80
2022-08-22T17:54:16.917Z,43.91
2022-08-22T17:57:24.858Z,43.91
2022-08-22T18:00:32.629Z,44.43
2022-08-22T18:03:40.331Z,45.03
2022-08-22T18:06:48.081Z,44.75
2022-08-22T18:09:51.573Z,45.17
2022-08-22T18:13:02.413Z,45.76
2022-08-22T18:16:03.372Z,45.89
2022-08-22T18:19:10.886Z,46.28
2022-08-22T18:22:18.535Z,46.80
2022-08-22T18:25:26.158Z,46.80
2022-08-22T18:28:34.500Z,47.40
2022-08-22T18:31:42.471Z,48.02
2022-08-22T18:34:50.323Z,47.82
2022-08-22T18:37:58.205Z,48.34
2022-08-22T18:41:05.956Z,48.74
2022-08-22T18:44:13.788Z,48.86
2022-08-22T18:47:21.498Z,49.26
2022-08-22T18:50:28.876Z,49.06
2022-08-22T18:53:36.931Z,49.68
2022-08-22T18:56:44.681Z,49.98
2022-08-22T18:59:52.044Z,50.38
2022-08-22T19:03:00.163Z,50.60
2022-08-22T19:06:07.837Z,51.22
2022-08-22T19:09:15.567Z,51.45
2022-08-22T19:12:23.457Z,51.97
2022-08-22T19:15:30.812Z,51.87
2022-08-22T19:18:39.040Z,52.67
2022-08-22T19:21:47.099Z,53.29
2022-08-22T19:24:54.432Z,53.12
2022-08-22T19:28:02.261Z,53.52
2022-08-22T19:31:12.076Z,53.81
2022-08-22T19:34:10.476Z,53.92
2022-08-22T19:37:31.901Z,54.71
2022-08-22T19:40:24.016Z,54.94
2022-08-22T19:43:31.829Z,55.44
2022-08-22T19:46:39.522Z,56.27
2022-08-22T19:49:47.663Z,56.07
2022-08-22T19:52:56.182Z,56.70
2022-08-22T19:56:03.604Z,56.99
2022-08-22T19:59:11.526Z,56.09
2022-08-22T20:02:21.099Z,56.39
2022-08-22T20:05:28.989Z,56.20
2022-08-22T20:08:36.610Z,55.77
2022-08-22T20:11:44.310Z,55.97
2022-08-22T20:14:52.242Z,55.97
2022-08-22T20:21:04.984Z,56.27
2022-08-22T20:24:12.695Z,56.59
2022-08-22T20:27:20.099Z,56.79
2022-08-22T20:30:28.089Z,57.09
2022-08-22T20:33:37.240Z,57.29
2022-08-22T20:36:44.601Z,57.52
2022-08-22T20:39:58.818Z,57.72
2022-08-22T20:42:57.053Z,57.92
2022-08-22T20:46:04.846Z,58.22
2022-08-22T20:49:13.134Z,58.55
2022-08-22T20:52:13.996Z,58.75
2022-08-22T20:55:21.659Z,59.05
2022-08-22T20:58:29.728Z,59.05
2022-08-22T21:01:30.528Z,59.35
2022-08-22T21:04:42.066Z,59.58
2022-08-22T21:07:39.711Z,59.78
2022-08-22T21:10:49.162Z,60.08
2022-08-22T21:13:56.864Z,60.48
2022-08-22T21:17:04.546Z,60.51
2022-08-22T21:20:12.265Z,60.61
2022-08-22T21:23:19.537Z,61.01
2022-08-22T21:26:27.556Z,61.21
2022-08-22T21:29:35.758Z,61.21
2022-08-22T21:32:43.099Z,61.21
2022-08-22T21:35:51.210Z,61.31
2022-08-22T21:38:58.872Z,61.61
2022-08-22T21:42:06.574Z,61.64
2022-08-22T21:45:14.464Z,61.74
2022-08-22T21:48:22.084Z,61.94
2022-08-22T21:51:29.786Z,62.04
2022-08-22T21:54:37.784Z,62.44
2022-08-22T21:57:45.158Z,62.57
2022-08-22T22:00:52.960Z,62.67
2022-08-22T22:04:02.601Z,62.57
2022-08-22T22:07:12.481Z,62.57
2022-08-22T22:10:14.532Z,62.57
2022-08-22T22:13:23.824Z,62.67
2022-08-22T22:16:33.809Z,62.77
2022-08-22T22:19:42.175Z,62.57
2022-08-22T22:22:51.296Z,62.87
2022-08-22T22:26:00.648Z,62.90
2022-08-22T22:29:09.278Z,63.00
2022-08-22T22:32:10.219Z,63.31
2022-08-22T22:35:19.760Z,63.31
2022-08-22T22:38:28.593Z,63.31
2022-08-22T22:41:38.031Z,63.20
2022-08-22T22:44:47.661Z,63.53
2022-08-22T22:47:56.532Z,63.73
2022-08-22T22:51:05.905Z,63.84
2022-08-22T22:54:14.263Z,63.84
2022-08-22T22:57:25.541Z,64.04
2022-08-22T23:00:34.560Z,64.17
2022-08-22T23:03:42.850Z,64.37
2022-08-22T23:06:53.301Z,64.47
2022-08-22T23:10:02.236Z,64.57
2022-08-22T23:13:09.881Z,64.90
2022-08-22T23:16:17.793Z,65.00
2022-08-22T23:19:25.415Z,65.00
2022-08-22T23:22:33.016Z,65.20
2022-08-22T23:25:40.906Z,65.10
2022-08-22T23:28:48.815Z,65.30
2022-08-22T23:31:56.565Z,65.41
2022-08-22T23:35:04.591Z,65.33
2022-08-22T23:38:12.201Z,65.53
2022-08-22T23:41:19.702Z,65.84
2022-08-22T23:44:27.143Z,65.84
2022-08-22T23:47:35.185Z,65.94
2022-08-22T23:50:42.865Z,66.14
2022-08-22T23:53:50.817Z,66.17
2022-08-22T23:56:58.926Z,66.27
